createdAt,value
2023-02-15T00:00:20.736Z,2.3
2023-02-15T00:01:23.797Z,2.3
2023-02-15T00:02:26.848Z,2.3
2023-02-15T00:03:30.076Z,2.3
2023-02-15T00:04:33.062Z,2.3
2023-02-15T00:05:37.488Z,2.3
2023-02-15T00:06:41.028Z,2.3
2023-02-15T00:07:43.524Z,2.3
2023-02-15T00:08:46.620Z,2.2
2023-02-15T00:09:50.412Z,2.2
2023-02-15T00:10:53.873Z,2.2
2023-02-15T00:11:57.772Z,2.2
2023-02-15T00:13:00.011Z,2.2
2023-02-15T00:14:03.036Z,2.2
2023-02-15T00:15:05.818Z,2.2
2023-02-15T00:16:09.355Z,2.2
2023-02-15T00:17:12.479Z,2.2
2023-02-15T00:18:15.886Z,2.2
2023-02-15T00:19:18.091Z,2.2
2023-02-15T00:20:21.815Z,2.2
2023-02-15T00:21:25.312Z,2.1
2023-02-15T00:22:28.738Z,2.1
2023-02-15T00:23:31.786Z,2.1
2023-02-15T00:24:35.324Z,2.1
2023-02-15T00:25:38.143Z,2.1
2023-02-15T00:26:41.937Z,2.1
2023-02-15T00:27:45.772Z,2.1
2023-02-15T00:28:49.474Z,2.1
2023-02-15T00:29:52.516Z,2.1
2023-02-15T00:30:56.965Z,2
2023-02-15T00:32:01.099Z,2
2023-02-15T00:33:04.555Z,2.1
2023-02-15T00:34:07.576Z,2.1
2023-02-15T00:35:11.667Z,2.1
2023-02-15T00:36:16.016Z,2
2023-02-15T00:37:19.443Z,2
2023-02-15T00:38:22.264Z,2
2023-02-15T00:39:25.771Z,2
2023-02-15T00:40:28.555Z,2
2023-02-15T00:41:31.636Z,2
2023-02-15T00:42:35.403Z,2
2023-02-15T00:43:39.367Z,2
2023-02-15T00:44:42.732Z,2
2023-02-15T00:45:45.985Z,2
2023-02-15T00:46:49.446Z,2
2023-02-15T00:47:52.217Z,2.1
2023-02-15T00:48:55.614Z,2.1
2023-02-15T00:49:58.627Z,2
2023-02-15T00:51:02.038Z,2
2023-02-15T00:52:05.751Z,2
2023-02-15T00:53:08.759Z,2
2023-02-15T00:54:12.484Z,1.9
2023-02-15T00:55:15.976Z,1.9
2023-02-15T00:56:19.591Z,1.9
2023-02-15T00:57:22.683Z,1.9
2023-02-15T00:58:25.943Z,1.9
2023-02-15T00:59:30.031Z,1.9
2023-02-15T01:00:32.821Z,2
2023-02-15T01:01:36.570Z,2
2023-02-15T01:02:40.388Z,2
2023-02-15T01:03:44.145Z,2
2023-02-15T01:04:47.964Z,2
2023-02-15T01:05:51.391Z,2
2023-02-15T01:06:54.806Z,2
2023-02-15T01:07:57.898Z,1.9
2023-02-15T01:09:01.374Z,1.9
2023-02-15T01:10:04.436Z,1.9
2023-02-15T01:11:08.081Z,1.9
2023-02-15T01:12:11.561Z,1.9
2023-02-15T01:13:14.715Z,1.9
2023-02-15T01:14:17.843Z,1.9
2023-02-15T01:15:21.962Z,1.9
2023-02-15T01:16:26.099Z,1.8
2023-02-15T01:17:28.993Z,1.8
2023-02-15T01:18:31.970Z,1.8
2023-02-15T01:19:34.798Z,1.8
2023-02-15T01:20:37.931Z,1.8
2023-02-15T01:21:41.086Z,1.8
2023-02-15T01:22:43.599Z,1.8
2023-02-15T01:23:46.921Z,1.8
2023-02-15T01:24:50.640Z,1.8
2023-02-15T01:25:53.429Z,1.8
2023-02-15T01:26:57.150Z,1.8
2023-02-15T01:28:00.260Z,1.8
2023-02-15T01:29:03.367Z,1.8
2023-02-15T01:30:06.867Z,1.7
2023-02-15T01:31:11.599Z,1.7
2023-02-15T01:32:15.216Z,1.7
2023-02-15T01:33:18.218Z,1.6
2023-02-15T01:34:22.008Z,1.6
2023-02-15T01:35:24.812Z,1.6
2023-02-15T01:36:28.497Z,1.7
2023-02-15T01:37:31.206Z,1.7
2023-02-15T01:38:34.286Z,1.7
2023-02-15T01:39:37.592Z,1.7
2023-02-15T01:40:40.929Z,1.7
2023-02-15T01:41:44.930Z,1.7
2023-02-15T01:42:48.046Z,1.7
2023-02-15T01:43:51.305Z,1.7
2023-02-15T01:44:54.377Z,1.7
2023-02-15T01:45:58.342Z,1.7
2023-02-15T01:47:02.136Z,1.6
2023-02-15T01:48:05.377Z,1.6
2023-02-15T01:49:08.635Z,1.6
2023-02-15T01:50:12.361Z,1.6
2023-02-15T01:51:15.784Z,1.6
2023-02-15T01:52:18.944Z,1.6
2023-02-15T01:53:22.272Z,1.7
2023-02-15T01:54:25.898Z,1.7
2023-02-15T01:55:28.996Z,1.6
2023-02-15T01:56:31.984Z,1.7
2023-02-15T01:57:35.371Z,1.7
2023-02-15T01:58:38.499Z,1.7
2023-02-15T01:59:41.615Z,1.7
2023-02-15T02:00:45.070Z,1.7
2023-02-15T02:01:48.492Z,1.8
2023-02-15T02:02:53.160Z,1.7
2023-02-15T02:03:55.896Z,1.7
2023-02-15T02:04:59.334Z,1.7
2023-02-15T02:06:04.483Z,1.7
2023-02-15T02:07:07.305Z,1.7
2023-02-15T02:08:10.573Z,1.7
2023-02-15T02:09:14.085Z,1.7
2023-02-15T02:10:17.381Z,1.7
2023-02-15T02:11:20.821Z,1.7
2023-02-15T02:12:24.157Z,1.7
2023-02-15T02:13:27.504Z,1.7
2023-02-15T02:14:30.903Z,1.6
2023-02-15T02:15:34.094Z,1.6
2023-02-15T02:16:37.354Z,1.6
2023-02-15T02:17:40.526Z,1.6
2023-02-15T02:18:44.601Z,1.6
2023-02-15T02:19:47.233Z,1.6
2023-02-15T02:20:50.437Z,1.6
2023-02-15T02:21:54.143Z,1.5
2023-02-15T02:22:57.129Z,1.6
2023-02-15T02:24:00.496Z,1.6
2023-02-15T02:25:03.216Z,1.6
2023-02-15T02:26:06.611Z,1.5
2023-02-15T02:27:10.432Z,1.6
2023-02-15T02:28:13.289Z,1.6
2023-02-15T02:29:16.548Z,1.5
2023-02-15T02:30:19.715Z,1.5
2023-02-15T02:31:23.566Z,1.5
2023-02-15T02:32:26.920Z,1.5
2023-02-15T02:33:29.988Z,1.5
2023-02-15T02:34:34.074Z,1.5
2023-02-15T02:35:36.516Z,1.5
2023-02-15T02:36:40.179Z,1.5
2023-02-15T02:37:43.469Z,1.5
2023-02-15T02:38:46.348Z,1.5
2023-02-15T02:39:49.553Z,1.5
2023-02-15T02:40:52.914Z,1.5
2023-02-15T02:41:56.156Z,1.5
2023-02-15T02:42:59.416Z,1.5
2023-02-15T02:44:02.471Z,1.5
2023-02-15T02:45:06.079Z,1.5
2023-02-15T02:46:09.133Z,1.5
2023-02-15T02:47:12.322Z,1.5
2023-02-15T02:48:15.682Z,1.4
2023-02-15T02:49:19.157Z,1.5
2023-02-15T02:50:23.272Z,1.4
2023-02-15T02:51:26.628Z,1.4
2023-02-15T02:52:29.454Z,1.4
2023-02-15T02:53:32.587Z,1.4
2023-02-15T02:54:35.736Z,1.4
2023-02-15T02:55:39.006Z,1.3
2023-02-15T02:56:41.828Z,1.3
2023-02-15T02:57:44.545Z,1.3
2023-02-15T02:58:48.000Z,1.4
2023-02-15T02:59:50.222Z,1.3
2023-02-15T03:00:53.244Z,1.3
2023-02-15T03:01:56.593Z,1.3
2023-02-15T03:02:59.519Z,1.3
2023-02-15T03:04:02.966Z,1.3
2023-02-15T03:05:06.074Z,1.4
2023-02-15T03:06:09.912Z,1.4
2023-02-15T03:07:13.636Z,1.4
2023-02-15T03:08:16.336Z,1.4
2023-02-15T03:09:19.440Z,1.4
2023-02-15T03:10:22.788Z,1.4
2023-02-15T03:11:26.233Z,1.4
2023-02-15T03:12:29.834Z,1.4
2023-02-15T03:13:32.936Z,1.4
2023-02-15T03:14:36.009Z,1.4
2023-02-15T03:15:38.880Z,1.4
2023-02-15T03:16:41.854Z,1.4
2023-02-15T03:17:44.757Z,1.4
2023-02-15T03:18:47.446Z,1.4
2023-02-15T03:19:50.718Z,1.4
2023-02-15T03:20:54.154Z,1.3
2023-02-15T03:21:58.210Z,1.3
2023-02-15T03:23:00.869Z,1.3
2023-02-15T03:24:04.389Z,1.3
2023-02-15T03:25:07.528Z,1.3
2023-02-15T03:26:10.602Z,1.3
2023-02-15T03:27:13.302Z,1.3
2023-02-15T03:28:16.288Z,1.3
2023-02-15T03:29:19.430Z,1.2
2023-02-15T03:30:23.742Z,1.2
2023-02-15T03:31:27.011Z,1.2
2023-02-15T03:32:30.260Z,1.2
2023-02-15T03:33:33.249Z,1.2
2023-02-15T03:34:36.681Z,1.2
2023-02-15T03:35:40.577Z,1.2
2023-02-15T03:36:44.407Z,1.3
2023-02-15T03:37:48.187Z,1.3
2023-02-15T03:38:51.172Z,1.3
2023-02-15T03:39:54.425Z,1.2
2023-02-15T03:40:58.033Z,1.2
2023-02-15T03:42:01.363Z,1.3
2023-02-15T03:43:04.351Z,1.2
2023-02-15T03:44:07.429Z,1.2
2023-02-15T03:45:10.799Z,1.2
2023-02-15T03:46:14.658Z,1.2
2023-02-15T03:47:17.687Z,1.2
2023-02-15T03:48:20.846Z,1.2
2023-02-15T03:49:23.862Z,1.2
2023-02-15T03:50:26.734Z,1.1
2023-02-15T03:51:30.102Z,1.1
2023-02-15T03:52:33.001Z,1.2
2023-02-15T03:53:37.050Z,1.1
2023-02-15T03:54:39.907Z,1.1
2023-02-15T03:55:43.056Z,1.1
2023-02-15T03:56:46.431Z,1.1
2023-02-15T03:57:49.529Z,1.1
2023-02-15T03:58:53.135Z,1.1
2023-02-15T03:59:56.241Z,1
2023-02-15T04:00:59.133Z,1
2023-02-15T04:02:02.614Z,1
2023-02-15T04:03:06.611Z,1.1
2023-02-15T04:04:09.641Z,1.1
2023-02-15T04:05:12.531Z,1
2023-02-15T04:06:14.672Z,1
2023-02-15T04:07:18.050Z,1
2023-02-15T04:08:21.161Z,1
2023-02-15T04:09:25.178Z,1
2023-02-15T04:10:28.284Z,1
2023-02-15T04:11:31.015Z,1
2023-02-15T04:12:34.068Z,1
2023-02-15T04:13:36.835Z,1
2023-02-15T04:14:40.266Z,1
2023-02-15T04:15:43.395Z,1
2023-02-15T04:16:46.898Z,1
2023-02-15T04:17:50.739Z,1.1
2023-02-15T04:18:53.794Z,1.1
2023-02-15T04:19:56.957Z,1
2023-02-15T04:21:00.095Z,1
2023-02-15T04:22:03.196Z,1.1
2023-02-15T04:23:05.735Z,1
2023-02-15T04:24:08.508Z,1.1
2023-02-15T04:25:12.295Z,1.1
2023-02-15T04:26:15.515Z,1
2023-02-15T04:27:19.841Z,1
2023-02-15T04:28:22.387Z,1
2023-02-15T04:29:25.762Z,1
2023-02-15T04:30:29.532Z,1
2023-02-15T04:31:33.428Z,0.9
2023-02-15T04:32:37.623Z,0.9
2023-02-15T04:33:40.757Z,0.9
2023-02-15T04:34:43.833Z,0.9
2023-02-15T04:35:46.338Z,0.9
2023-02-15T04:36:49.121Z,0.9
2023-02-15T04:37:51.818Z,0.8
2023-02-15T04:38:54.618Z,0.8
2023-02-15T04:39:58.145Z,0.9
2023-02-15T04:41:02.264Z,0.9
2023-02-15T04:42:04.965Z,0.9
2023-02-15T04:43:08.042Z,0.9
2023-02-15T04:44:11.526Z,0.9
2023-02-15T04:45:14.623Z,0.9
2023-02-15T04:46:18.218Z,0.9
2023-02-15T04:47:20.977Z,0.9
2023-02-15T04:48:24.031Z,0.9
2023-02-15T04:49:27.458Z,0.9
2023-02-15T04:50:30.690Z,0.9
2023-02-15T04:51:33.949Z,0.9
2023-02-15T04:52:36.083Z,0.9
2023-02-15T04:53:39.430Z,0.9
2023-02-15T04:54:42.164Z,0.9
2023-02-15T04:55:46.330Z,0.9
2023-02-15T04:56:50.386Z,0.9
2023-02-15T04:57:53.547Z,0.9
2023-02-15T04:58:56.909Z,0.9
2023-02-15T04:59:59.715Z,0.9
2023-02-15T05:01:03.143Z,0.9
2023-02-15T05:02:07.241Z,0.9
2023-02-15T05:03:10.022Z,0.9
2023-02-15T05:04:13.237Z,0.9
2023-02-15T05:05:16.378Z,0.8
2023-02-15T05:06:18.982Z,0.8
2023-02-15T05:07:21.795Z,0.8
2023-02-15T05:08:24.787Z,0.8
2023-02-15T05:09:27.864Z,0.9
2023-02-15T05:10:31.222Z,0.9
2023-02-15T05:11:34.958Z,0.8
2023-02-15T05:12:38.508Z,0.8
2023-02-15T05:13:41.351Z,0.8
2023-02-15T05:14:44.774Z,0.8
2023-02-15T05:15:48.144Z,0.8
2023-02-15T05:16:51.790Z,0.8
2023-02-15T05:17:54.872Z,0.7
2023-02-15T05:18:57.680Z,0.7
2023-02-15T05:20:00.520Z,0.7
2023-02-15T05:21:04.164Z,0.7
2023-02-15T05:22:06.961Z,0.8
2023-02-15T05:23:09.678Z,0.7
2023-02-15T05:24:12.826Z,0.7
2023-02-15T05:25:16.362Z,0.7
2023-02-15T05:26:20.399Z,0.7
2023-02-15T05:27:23.841Z,0.7
2023-02-15T05:28:27.337Z,0.7
2023-02-15T05:29:29.915Z,0.7
2023-02-15T05:30:33.964Z,0.6
2023-02-15T05:31:39.308Z,0.7
2023-02-15T05:32:43.802Z,0.7
2023-02-15T05:33:47.809Z,0.7
2023-02-15T05:34:50.555Z,0.7
2023-02-15T05:35:53.548Z,0.7
2023-02-15T05:36:56.103Z,0.7
2023-02-15T05:37:58.948Z,0.7
2023-02-15T05:39:02.366Z,0.7
2023-02-15T05:40:05.355Z,0.7
2023-02-15T05:41:08.334Z,0.7
2023-02-15T05:42:11.612Z,0.7
2023-02-15T05:43:15.670Z,0.7
2023-02-15T05:44:19.737Z,0.7
2023-02-15T05:45:22.733Z,0.7
2023-02-15T05:46:25.921Z,0.7
2023-02-15T05:47:29.026Z,0.7
2023-02-15T05:48:33.041Z,0.7
2023-02-15T05:49:36.782Z,0.7
2023-02-15T05:50:40.446Z,0.7
2023-02-15T05:51:42.890Z,0.7
2023-02-15T05:52:45.316Z,0.7
2023-02-15T05:53:47.582Z,0.7
2023-02-15T05:54:50.646Z,0.7
2023-02-15T05:55:53.471Z,0.6
2023-02-15T05:56:57.137Z,0.7
2023-02-15T05:58:00.585Z,0.7
2023-02-15T05:59:03.879Z,0.7
2023-02-15T06:00:07.734Z,0.7
2023-02-15T06:01:11.014Z,0.7
2023-02-15T06:02:14.325Z,0.7
2023-02-15T06:03:17.148Z,0.7
2023-02-15T06:04:20.697Z,0.7
2023-02-15T06:05:23.834Z,0.7
2023-02-15T06:06:27.234Z,0.6
2023-02-15T06:07:30.286Z,0.6
2023-02-15T06:08:33.329Z,0.7
2023-02-15T06:09:36.108Z,0.7
2023-02-15T06:10:39.495Z,0.6
2023-02-15T06:11:42.570Z,0.7
2023-02-15T06:12:45.564Z,0.6
2023-02-15T06:13:48.941Z,0.7
2023-02-15T06:14:51.783Z,0.6
2023-02-15T06:15:56.155Z,0.7
2023-02-15T06:16:59.797Z,0.6
2023-02-15T06:18:02.666Z,0.6
2023-02-15T06:19:05.910Z,0.6
2023-02-15T06:20:08.750Z,0.6
2023-02-15T06:21:11.778Z,0.7
2023-02-15T06:22:15.192Z,0.7
2023-02-15T06:23:17.969Z,0.7
2023-02-15T06:24:21.365Z,0.6
2023-02-15T06:25:24.144Z,0.6
2023-02-15T06:26:27.507Z,0.6
2023-02-15T06:27:30.410Z,0.6
2023-02-15T06:28:33.191Z,0.6
2023-02-15T06:29:36.514Z,0.6
2023-02-15T06:30:40.639Z,0.6
2023-02-15T06:31:45.795Z,0.6
2023-02-15T06:32:48.692Z,0.6
2023-02-15T06:33:52.089Z,0.6
2023-02-15T06:34:55.519Z,0.6
2023-02-15T06:35:58.589Z,0.6
2023-02-15T06:37:01.975Z,0.6
2023-02-15T06:38:05.146Z,0.6
2023-02-15T06:39:07.684Z,0.6
2023-02-15T06:40:11.473Z,0.6
2023-02-15T06:41:14.803Z,0.6
2023-02-15T06:42:18.567Z,0.6
2023-02-15T06:43:21.411Z,0.6
2023-02-15T06:44:24.407Z,0.5
2023-02-15T06:45:27.253Z,0.5
2023-02-15T06:46:31.052Z,0.5
2023-02-15T06:47:34.978Z,0.5
2023-02-15T06:48:37.584Z,0.5
2023-02-15T06:49:40.206Z,0.4
2023-02-15T06:50:43.936Z,0.5
2023-02-15T06:51:47.634Z,0.5
2023-02-15T06:52:50.367Z,0.5
2023-02-15T06:53:53.462Z,0.5
2023-02-15T06:54:56.893Z,0.5
2023-02-15T06:56:01.249Z,0.5
2023-02-15T06:57:04.387Z,0.5
2023-02-15T06:58:08.153Z,0.5
2023-02-15T06:59:11.805Z,0.6
2023-02-15T07:00:14.901Z,0.6
2023-02-15T07:01:18.544Z,0.6
2023-02-15T07:02:22.008Z,0.6
2023-02-15T07:03:26.034Z,0.6
2023-02-15T07:04:29.857Z,0.6
2023-02-15T07:05:33.973Z,0.6
2023-02-15T07:06:37.408Z,0.5
2023-02-15T07:07:40.813Z,0.6
2023-02-15T07:08:43.818Z,0.5
2023-02-15T07:09:47.605Z,0.5
2023-02-15T07:10:50.888Z,0.5
2023-02-15T07:11:54.264Z,0.5
2023-02-15T07:12:56.702Z,0.5
2023-02-15T07:14:00.342Z,0.5
2023-02-15T07:15:03.400Z,0.5
2023-02-15T07:16:07.320Z,0.5
2023-02-15T07:17:37.816Z,0.5
2023-02-15T07:18:41.968Z,0.5
2023-02-15T07:19:44.924Z,0.5
2023-02-15T07:20:48.927Z,0.6
2023-02-15T07:21:51.992Z,0.6
2023-02-15T07:22:55.359Z,0.6
2023-02-15T07:23:58.537Z,0.6
2023-02-15T07:25:01.358Z,0.7
2023-02-15T07:26:05.289Z,0.7
2023-02-15T07:27:08.346Z,0.7
2023-02-15T07:28:11.468Z,0.7
2023-02-15T07:29:14.457Z,0.8
2023-02-15T07:30:19.014Z,0.8
2023-02-15T07:31:22.338Z,0.8
2023-02-15T07:32:26.088Z,0.8
2023-02-15T07:33:29.748Z,0.8
2023-02-15T07:34:33.939Z,0.8
2023-02-15T07:35:36.730Z,0.8
2023-02-15T07:36:40.209Z,0.8
2023-02-15T07:37:43.219Z,0.9
2023-02-15T07:38:46.303Z,0.9
2023-02-15T07:39:49.432Z,0.9
2023-02-15T07:40:53.495Z,0.9
2023-02-15T07:41:56.493Z,0.9
2023-02-15T07:42:59.892Z,0.8
2023-02-15T07:44:03.055Z,0.8
2023-02-15T07:45:06.213Z,0.9
2023-02-15T07:46:09.816Z,0.9
2023-02-15T07:47:12.984Z,0.9
2023-02-15T07:48:16.337Z,0.9
2023-02-15T07:49:19.935Z,0.9
2023-02-15T07:50:24.072Z,0.9
2023-02-15T07:51:27.806Z,0.9
2023-02-15T07:52:30.893Z,1
2023-02-15T07:53:34.544Z,1
2023-02-15T07:54:37.772Z,1
2023-02-15T07:55:41.128Z,1
2023-02-15T07:56:43.982Z,0.9
2023-02-15T07:57:47.558Z,0.9
2023-02-15T07:58:50.956Z,0.9
2023-02-15T07:59:53.732Z,1
2023-02-15T08:00:56.804Z,0.9
2023-02-15T08:02:00.607Z,0.9
2023-02-15T08:03:05.231Z,0.9
2023-02-15T08:04:08.687Z,1
2023-02-15T08:05:12.007Z,1
2023-02-15T08:06:16.107Z,1
2023-02-15T08:07:18.884Z,1
2023-02-15T08:08:22.530Z,1
2023-02-15T08:09:25.869Z,1
2023-02-15T08:10:28.892Z,1
2023-02-15T08:11:32.318Z,1.1
2023-02-15T08:12:35.778Z,1.1
2023-02-15T08:13:39.448Z,1.1
2023-02-15T08:14:42.498Z,1.1
2023-02-15T08:15:45.924Z,1.1
2023-02-15T08:16:49.745Z,1.1
2023-02-15T08:17:53.380Z,1
2023-02-15T08:18:56.178Z,1
2023-02-15T08:19:58.344Z,1
2023-02-15T08:21:02.109Z,1.1
2023-02-15T08:22:05.942Z,1.1
2023-02-15T08:23:08.831Z,1
2023-02-15T08:24:11.941Z,1
2023-02-15T08:25:14.741Z,1.1
2023-02-15T08:26:17.835Z,1.1
2023-02-15T08:27:20.877Z,1.1
2023-02-15T08:28:23.925Z,1.2
2023-02-15T08:29:27.576Z,1.2
2023-02-15T08:30:31.560Z,1.1
2023-02-15T08:31:38.813Z,1.2
2023-02-15T08:32:41.684Z,1.2
2023-02-15T08:33:45.415Z,1.2
2023-02-15T08:34:48.196Z,1.2
2023-02-15T08:35:51.895Z,1.1
2023-02-15T08:36:55.078Z,1.1
2023-02-15T08:37:58.984Z,1.1
2023-02-15T08:39:02.055Z,1.1
2023-02-15T08:40:04.580Z,1.1
2023-02-15T08:41:07.911Z,1.1
2023-02-15T08:42:10.974Z,1.2
2023-02-15T08:43:14.044Z,1.2
2023-02-15T08:44:17.755Z,1.2
2023-02-15T08:45:21.127Z,1.2
2023-02-15T08:46:24.480Z,1.3
2023-02-15T08:47:27.559Z,1.1
2023-02-15T08:48:30.963Z,1.2
2023-02-15T08:49:34.106Z,1.2
2023-02-15T08:50:37.750Z,1.1
2023-02-15T08:51:41.173Z,1.1
2023-02-15T08:52:44.276Z,1.1
2023-02-15T08:53:48.137Z,1.1
2023-02-15T08:54:50.661Z,1
2023-02-15T08:55:53.958Z,1.1
2023-02-15T08:56:57.325Z,1.1
2023-02-15T08:58:00.112Z,1.1
2023-02-15T08:59:03.871Z,1.1
2023-02-15T09:00:07.371Z,1.2
2023-02-15T09:01:11.137Z,1.2
2023-02-15T09:02:14.325Z,1.2
2023-02-15T09:03:17.719Z,1.3
2023-02-15T09:04:20.188Z,1.3
2023-02-15T09:05:23.576Z,1.2
2023-02-15T09:06:26.942Z,1.2
2023-02-15T09:07:29.693Z,1.2
2023-02-15T09:08:33.393Z,1.1
2023-02-15T09:09:37.235Z,1.1
2023-02-15T09:10:40.044Z,1.2
2023-02-15T09:11:43.147Z,1.2
2023-02-15T09:12:46.139Z,1.3
2023-02-15T09:13:50.560Z,1.2
2023-02-15T09:14:53.915Z,1.2
2023-02-15T09:15:57.349Z,1.2
2023-02-15T09:17:00.942Z,1.2
2023-02-15T09:18:03.825Z,1.2
2023-02-15T09:19:07.913Z,1.2
2023-02-15T09:20:10.744Z,1.2
2023-02-15T09:21:13.891Z,1.2
2023-02-15T09:22:17.337Z,1.2
2023-02-15T09:23:28.434Z,1.3
2023-02-15T09:24:31.931Z,1.3
2023-02-15T09:25:35.781Z,1.3
2023-02-15T09:26:38.913Z,1.4
2023-02-15T09:27:42.569Z,1.4
2023-02-15T09:28:45.936Z,1.4
2023-02-15T09:29:49.294Z,1.4
2023-02-15T09:30:52.641Z,1.4
2023-02-15T09:31:56.254Z,1.5
2023-02-15T09:32:59.960Z,1.5
2023-02-15T09:34:03.117Z,1.5
2023-02-15T09:35:06.202Z,1.6
2023-02-15T09:36:09.708Z,1.7
2023-02-15T09:37:12.771Z,1.6
2023-02-15T09:38:15.346Z,1.7
2023-02-15T09:39:18.989Z,1.7
2023-02-15T09:40:23.111Z,1.8
2023-02-15T09:41:26.618Z,1.9
2023-02-15T09:42:29.882Z,1.9
2023-02-15T09:43:32.401Z,2
2023-02-15T09:44:36.128Z,2
2023-02-15T09:45:39.095Z,1.9
2023-02-15T09:46:41.920Z,1.9
2023-02-15T09:47:45.590Z,1.9
2023-02-15T09:48:48.723Z,1.9
2023-02-15T09:49:51.494Z,2
2023-02-15T09:50:54.512Z,2
2023-02-15T09:51:57.283Z,2
2023-02-15T09:53:00.013Z,2
2023-02-15T09:54:03.157Z,2
2023-02-15T09:55:06.907Z,2
2023-02-15T09:56:10.439Z,2
2023-02-15T09:57:14.402Z,2.1
2023-02-15T09:58:17.198Z,2.1
2023-02-15T09:59:20.869Z,2.1
2023-02-15T10:00:24.867Z,2.2
2023-02-15T10:01:28.350Z,2.3
2023-02-15T10:02:31.814Z,2.4
2023-02-15T10:03:34.962Z,2.4
2023-02-15T10:04:38.853Z,2.5
2023-02-15T10:05:42.419Z,2.5
2023-02-15T10:06:45.552Z,2.5
2023-02-15T10:07:49.162Z,2.5
2023-02-15T10:08:52.883Z,2.5
2023-02-15T10:09:55.656Z,2.6
2023-02-15T10:10:59.407Z,2.6
2023-02-15T10:12:02.743Z,2.6
2023-02-15T10:13:06.660Z,2.7
2023-02-15T10:14:09.710Z,2.7
2023-02-15T10:15:13.184Z,2.8
2023-02-15T10:16:16.222Z,2.8
2023-02-15T10:17:19.371Z,2.9
2023-02-15T10:18:22.634Z,3
2023-02-15T10:19:29.646Z,3
2023-02-15T10:20:33.305Z,3
2023-02-15T10:21:36.950Z,3.1
2023-02-15T10:22:40.372Z,3.1
2023-02-15T10:23:43.418Z,3.1
2023-02-15T10:24:50.138Z,3.1
2023-02-15T10:25:53.872Z,3.2
2023-02-15T10:26:56.877Z,3.2
2023-02-15T10:28:00.616Z,3.2
2023-02-15T10:29:04.748Z,3.3
2023-02-15T10:30:08.898Z,3.3
2023-02-15T10:31:12.845Z,3.3
2023-02-15T10:32:17.748Z,3.3
2023-02-15T10:33:21.182Z,3.3
2023-02-15T10:34:24.260Z,3.3
2023-02-15T10:35:27.254Z,3.2
2023-02-15T10:36:30.439Z,3.2
2023-02-15T10:37:34.063Z,3.2
2023-02-15T10:38:37.449Z,3.2
2023-02-15T10:39:40.861Z,3.2
2023-02-15T10:40:44.034Z,3.2
2023-02-15T10:41:48.867Z,3.3
2023-02-15T10:42:51.678Z,3.3
2023-02-15T10:43:55.141Z,3.3
2023-02-15T10:44:59.115Z,3.4
2023-02-15T10:46:02.433Z,3.4
2023-02-15T10:47:06.130Z,3.3
2023-02-15T10:48:09.504Z,3.3
2023-02-15T10:49:13.260Z,3.3
2023-02-15T10:50:16.720Z,3.3
2023-02-15T10:51:20.143Z,3.4
2023-02-15T10:52:25.914Z,3.5
2023-02-15T10:53:29.300Z,3.5
2023-02-15T10:54:32.034Z,3.6
2023-02-15T10:55:35.475Z,3.5
2023-02-15T10:56:38.931Z,3.5
2023-02-15T10:57:42.306Z,3.5
2023-02-15T10:58:44.763Z,3.5
2023-02-15T10:59:48.319Z,3.6
2023-02-15T11:00:52.291Z,3.6
2023-02-15T11:01:55.920Z,3.6
2023-02-15T11:02:59.087Z,3.6
2023-02-15T11:04:02.152Z,3.6
2023-02-15T11:05:06.156Z,3.6
2023-02-15T11:06:09.630Z,3.7
2023-02-15T11:07:12.838Z,3.7
2023-02-15T11:08:15.854Z,3.8
2023-02-15T11:09:19.632Z,3.8
2023-02-15T11:10:22.945Z,3.7
2023-02-15T11:11:26.109Z,3.7
2023-02-15T11:12:29.812Z,3.8
2023-02-15T11:13:32.747Z,3.8
2023-02-15T11:14:36.121Z,3.8
2023-02-15T11:15:40.132Z,3.7
2023-02-15T11:16:44.350Z,3.7
2023-02-15T11:17:48.269Z,3.8
2023-02-15T11:18:52.004Z,3.8
2023-02-15T11:19:55.785Z,3.8
2023-02-15T11:20:59.059Z,3.8
2023-02-15T11:22:02.245Z,3.9
2023-02-15T11:23:05.613Z,3.9
2023-02-15T11:24:09.629Z,3.9
2023-02-15T11:25:13.805Z,4
2023-02-15T11:26:17.222Z,4.1
2023-02-15T11:27:20.717Z,4.1
2023-02-15T11:28:24.777Z,4.2
2023-02-15T11:29:27.799Z,4.2
2023-02-15T11:30:31.217Z,4.3
2023-02-15T11:31:35.762Z,4.3
2023-02-15T11:32:39.918Z,4.3
2023-02-15T11:33:43.671Z,4.2
2023-02-15T11:34:47.006Z,4.2
2023-02-15T11:35:50.074Z,4.3
2023-02-15T11:36:53.080Z,4.3
2023-02-15T11:37:56.865Z,4.3
2023-02-15T11:39:00.208Z,4.3
2023-02-15T11:40:03.682Z,4.3
2023-02-15T11:41:07.196Z,4.3
2023-02-15T11:42:10.365Z,4.3
2023-02-15T11:43:13.352Z,4.3
2023-02-15T11:44:16.353Z,4.3
2023-02-15T11:45:19.729Z,4.3
2023-02-15T11:46:23.884Z,4.3
2023-02-15T11:47:27.571Z,4.3
2023-02-15T11:48:31.520Z,4.3
2023-02-15T11:49:34.666Z,4.3
2023-02-15T11:50:38.705Z,4.3
2023-02-15T11:51:42.335Z,4.3
2023-02-15T11:52:46.028Z,4.3
2023-02-15T11:53:49.144Z,4.2
2023-02-15T11:54:52.816Z,4.2
2023-02-15T11:55:55.553Z,4.2
2023-02-15T11:56:58.914Z,4.2
2023-02-15T11:58:02.459Z,4.3
2023-02-15T11:59:05.548Z,4.3
2023-02-15T12:00:08.898Z,4.2
2023-02-15T12:01:12.322Z,4.2
2023-02-15T12:02:15.388Z,4.2
2023-02-15T12:03:18.818Z,4.2
2023-02-15T12:04:23.719Z,4.2
2023-02-15T12:05:27.437Z,4.2
2023-02-15T12:06:31.240Z,4.2
2023-02-15T12:07:34.231Z,4.2
2023-02-15T12:08:36.810Z,4.2
2023-02-15T12:09:40.278Z,4.2
2023-02-15T12:10:43.730Z,4.2
2023-02-15T12:11:46.585Z,4.3
2023-02-15T12:12:49.927Z,4.3
2023-02-15T12:13:52.640Z,4.3
2023-02-15T12:14:56.119Z,4.3
2023-02-15T12:16:00.142Z,4.3
2023-02-15T12:17:02.971Z,4.3
2023-02-15T12:18:05.744Z,4.2
2023-02-15T12:19:08.831Z,4.2
2023-02-15T12:20:13.243Z,4.2
2023-02-15T12:21:16.630Z,4.2
2023-02-15T12:22:19.636Z,4.2
2023-02-15T12:23:23.120Z,4.1
2023-02-15T12:24:26.115Z,4.1
2023-02-15T12:25:29.316Z,4.1
2023-02-15T12:26:32.123Z,4.2
2023-02-15T12:27:35.928Z,4.2
2023-02-15T12:28:42.512Z,4.3
2023-02-15T12:29:45.824Z,4.4
2023-02-15T12:30:48.870Z,4.4
2023-02-15T12:31:53.206Z,4.5
2023-02-15T12:32:57.163Z,4.4
2023-02-15T12:34:00.984Z,4.4
2023-02-15T12:35:05.118Z,4.4
2023-02-15T12:36:09.238Z,4.4
2023-02-15T12:37:11.974Z,4.4
2023-02-15T12:38:15.265Z,4.4
2023-02-15T12:39:18.356Z,4.4
2023-02-15T12:40:21.502Z,4.5
2023-02-15T12:41:24.589Z,4.5
2023-02-15T12:42:27.677Z,4.6
2023-02-15T12:43:30.379Z,4.7
2023-02-15T12:44:33.743Z,4.7
2023-02-15T12:45:37.147Z,4.7
2023-02-15T12:46:41.132Z,4.7
2023-02-15T12:47:44.633Z,4.8
2023-02-15T12:48:48.312Z,4.8
2023-02-15T12:49:51.095Z,4.8
2023-02-15T12:50:57.576Z,4.8
2023-02-15T12:52:01.439Z,4.7
2023-02-15T12:53:04.544Z,4.7
2023-02-15T12:54:07.892Z,4.6
2023-02-15T12:55:11.058Z,4.7
2023-02-15T12:56:13.768Z,4.7
2023-02-15T12:57:16.911Z,4.8
2023-02-15T12:58:19.644Z,4.8
2023-02-15T12:59:24.967Z,4.8
2023-02-15T13:00:28.467Z,4.8
2023-02-15T13:01:31.605Z,4.8
2023-02-15T13:02:35.325Z,4.8
2023-02-15T13:03:39.058Z,4.8
2023-02-15T13:04:42.284Z,4.8
2023-02-15T13:05:47.164Z,4.9
2023-02-15T13:06:51.010Z,4.9
2023-02-15T13:07:54.990Z,5
2023-02-15T13:08:58.627Z,4.9
2023-02-15T13:10:02.528Z,5
2023-02-15T13:11:06.665Z,5
2023-02-15T13:12:09.753Z,5
2023-02-15T13:13:12.884Z,5.1
2023-02-15T13:14:16.697Z,5.2
2023-02-15T13:15:19.847Z,5.2
2023-02-15T13:16:23.748Z,5.2
2023-02-15T13:17:27.533Z,5.2
2023-02-15T13:18:31.245Z,5.2
2023-02-15T13:19:35.176Z,5.3
2023-02-15T13:20:38.623Z,5.3
2023-02-15T13:21:41.750Z,5.4
2023-02-15T13:22:45.410Z,5.5
2023-02-15T13:23:49.722Z,5.6
2023-02-15T13:24:54.027Z,5.8
2023-02-15T13:25:57.354Z,5.9
2023-02-15T13:27:17.672Z,5.9
2023-02-15T13:28:21.354Z,6
2023-02-15T13:29:25.093Z,6
2023-02-15T13:30:28.875Z,6
2023-02-15T13:31:32.848Z,5.9
2023-02-15T13:32:36.539Z,6
2023-02-15T13:33:39.806Z,6
2023-02-15T13:34:43.426Z,6
2023-02-15T13:35:46.163Z,6.1
2023-02-15T13:36:48.949Z,6.1
2023-02-15T13:37:52.243Z,6.1
2023-02-15T13:38:56.389Z,6.1
2023-02-15T13:40:00.139Z,6.1
2023-02-15T13:41:05.019Z,6.1
2023-02-15T13:42:08.159Z,6.1
2023-02-15T13:43:11.493Z,6.2
2023-02-15T13:44:15.484Z,6.1
2023-02-15T13:45:18.580Z,6.1
2023-02-15T13:46:22.753Z,5.9
2023-02-15T13:47:25.635Z,5.8
2023-02-15T13:48:52.485Z,5.8
2023-02-15T13:49:55.500Z,5.9
2023-02-15T13:50:58.854Z,5.9
2023-02-15T13:52:02.591Z,5.9
2023-02-15T13:53:06.174Z,5.9
2023-02-15T13:54:10.323Z,5.9
2023-02-15T13:55:13.985Z,5.9
2023-02-15T13:56:16.764Z,6
2023-02-15T13:57:20.005Z,6
2023-02-15T13:58:23.665Z,6
2023-02-15T13:59:27.632Z,5.9
2023-02-15T14:00:31.321Z,5.8
2023-02-15T14:01:35.933Z,5.7
2023-02-15T14:02:39.379Z,5.6
2023-02-15T14:03:43.339Z,5.6
2023-02-15T14:04:47.193Z,5.5
2023-02-15T14:05:50.534Z,5.5
2023-02-15T14:06:52.954Z,5.5
2023-02-15T14:07:56.237Z,5.5
2023-02-15T14:11:18.499Z,5.5
2023-02-15T14:12:22.242Z,5.6
2023-02-15T14:13:25.962Z,5.6
2023-02-15T14:14:29.541Z,5.7
2023-02-15T14:15:32.965Z,5.7
2023-02-15T14:16:36.829Z,5.8
2023-02-15T14:17:40.189Z,5.9
2023-02-15T14:18:43.542Z,6
2023-02-15T14:19:47.192Z,6.1
2023-02-15T14:20:50.996Z,6.2
2023-02-15T14:21:54.253Z,6.2
2023-02-15T14:22:57.028Z,6
2023-02-15T14:24:00.715Z,6.1
2023-02-15T14:25:04.645Z,6.1
2023-02-15T14:26:07.580Z,6.1
2023-02-15T14:27:11.281Z,6.1
2023-02-15T14:28:15.046Z,5.9
2023-02-15T14:29:18.174Z,5.9
2023-02-15T14:30:21.732Z,5.9
2023-02-15T14:31:26.440Z,6
2023-02-15T14:32:32.050Z,6
2023-02-15T14:33:38.680Z,5.9
2023-02-15T14:34:41.806Z,5.9
2023-02-15T14:35:44.866Z,5.9
2023-02-15T14:36:48.552Z,5.8
2023-02-15T14:37:52.452Z,5.8
2023-02-15T14:38:55.169Z,5.8
2023-02-15T14:39:59.232Z,5.8
2023-02-15T14:41:06.388Z,5.8
2023-02-15T14:42:10.280Z,5.8
2023-02-15T14:43:14.456Z,5.8